sensor_id;sensor_type;location;lat;lon;timestamp;P1;durP1;ratioP1;P2;durP2;ratioP2
75212;SDS011;63798;61.778;34.352;2022-10-16T00:00:29;1.52;;;1.05;;
75212;SDS011;63798;61.778;34.352;2022-10-16T00:02:56;0.98;;;0.88;;
75212;SDS011;63798;61.778;34.352;2022-10-16T00:05:24;1.15;;;0.80;;
75212;SDS011;63798;61.778;34.352;2022-10-16T00:07:50;1.23;;;0.95;;
75212;SDS011;63798;61.778;34.352;2022-10-16T00:10:17;1.80;;;0.70;;
75212;SDS011;63798;61.778;34.352;2022-10-16T00:12:44;1.05;;;0.80;;
75212;SDS011;63798;61.778;34.352;2022-10-16T00:15:11;1.45;;;0.95;;
75212;SDS011;63798;61.778;34.352;2022-10-16T00:17:37;1.10;;;0.90;;
75212;SDS011;63798;61.778;34.352;2022-10-16T00:20:05;1.50;;;0.90;;
75212;SDS011;63798;61.778;34.352;2022-10-16T00:22:33;1.15;;;0.75;;
75212;SDS011;63798;61.778;34.352;2022-10-16T00:25:00;1.55;;;0.88;;
75212;SDS011;63798;61.778;34.352;2022-10-16T00:27:27;1.70;;;0.93;;
75212;SDS011;63798;61.778;34.352;2022-10-16T00:29:53;1.10;;;1.00;;
75212;SDS011;63798;61.778;34.352;2022-10-16T00:32:20;1.20;;;1.00;;
75212;SDS011;63798;61.778;34.352;2022-10-16T00:34:47;1.48;;;1.08;;
75212;SDS011;63798;61.778;34.352;2022-10-16T00:37:14;2.03;;;1.08;;
75212;SDS011;63798;61.778;34.352;2022-10-16T00:39:42;1.27;;;0.90;;
75212;SDS011;63798;61.778;34.352;2022-10-16T00:42:09;1.55;;;1.17;;
75212;SDS011;63798;61.778;34.352;2022-10-16T00:44:42;0.95;;;0.85;;
75212;SDS011;63798;61.778;34.352;2022-10-16T00:47:09;1.73;;;0.95;;
75212;SDS011;63798;61.778;34.352;2022-10-16T00:49:36;1.33;;;0.90;;
75212;SDS011;63798;61.778;34.352;2022-10-16T00:52:03;1.52;;;1.00;;
75212;SDS011;63798;61.778;34.352;2022-10-16T00:54:30;1.25;;;1.00;;
75212;SDS011;63798;61.778;34.352;2022-10-16T00:59:26;0.90;;;0.80;;
75212;SDS011;63798;61.778;34.352;2022-10-16T01:01:53;1.00;;;0.90;;
75212;SDS011;63798;61.778;34.352;2022-10-16T01:04:20;2.05;;;0.80;;
75212;SDS011;63798;61.778;34.352;2022-10-16T01:06:49;1.05;;;0.90;;
75212;SDS011;63798;61.778;34.352;2022-10-16T01:09:20;1.38;;;0.85;;
75212;SDS011;63798;61.778;34.352;2022-10-16T01:11:49;1.33;;;1.08;;
75212;SDS011;63798;61.778;34.352;2022-10-16T01:14:22;1.67;;;0.80;;
75212;SDS011;63798;61.778;34.352;2022-10-16T01:16:51;1.30;;;0.90;;
75212;SDS011;63798;61.778;34.352;2022-10-16T01:19:20;1.90;;;1.00;;
75212;SDS011;63798;61.778;34.352;2022-10-16T01:21:52;1.50;;;1.10;;
75212;SDS011;63798;61.778;34.352;2022-10-16T01:24:23;1.35;;;1.00;;
75212;SDS011;63798;61.778;34.352;2022-10-16T01:27:13;1.98;;;1.20;;
75212;SDS011;63798;61.778;34.352;2022-10-16T01:29:43;1.63;;;0.98;;
75212;SDS011;63798;61.778;34.352;2022-10-16T01:32:14;1.63;;;0.80;;
75212;SDS011;63798;61.778;34.352;2022-10-16T01:34:43;2.00;;;1.00;;
75212;SDS011;63798;61.778;34.352;2022-10-16T01:37:14;1.73;;;1.10;;
75212;SDS011;63798;61.778;34.352;2022-10-16T01:39:42;1.23;;;0.82;;
75212;SDS011;63798;61.778;34.352;2022-10-16T01:42:12;1.60;;;0.95;;
75212;SDS011;63798;61.778;34.352;2022-10-16T01:44:42;1.00;;;0.90;;
75212;SDS011;63798;61.778;34.352;2022-10-16T01:47:10;1.30;;;0.88;;
75212;SDS011;63798;61.778;34.352;2022-10-16T01:49:37;1.42;;;0.90;;
75212;SDS011;63798;61.778;34.352;2022-10-16T01:52:05;1.10;;;0.90;;
75212;SDS011;63798;61.778;34.352;2022-10-16T01:54:33;1.67;;;1.05;;
75212;SDS011;63798;61.778;34.352;2022-10-16T01:57:00;1.27;;;0.93;;
75212;SDS011;63798;61.778;34.352;2022-10-16T01:59:28;2.05;;;1.00;;
75212;SDS011;63798;61.778;34.352;2022-10-16T02:01:59;1.50;;;0.90;;
75212;SDS011;63798;61.778;34.352;2022-10-16T02:04:28;1.20;;;0.90;;
75212;SDS011;63798;61.778;34.352;2022-10-16T02:06:56;1.00;;;0.80;;
75212;SDS011;63798;61.778;34.352;2022-10-16T02:09:23;1.30;;;0.90;;
75212;SDS011;63798;61.778;34.352;2022-10-16T02:11:50;1.48;;;1.00;;
75212;SDS011;63798;61.778;34.352;2022-10-16T02:14:18;2.13;;;1.10;;
75212;SDS011;63798;61.778;34.352;2022-10-16T02:16:45;1.33;;;1.20;;
75212;SDS011;63798;61.778;34.352;2022-10-16T02:19:14;1.55;;;0.95;;
75212;SDS011;63798;61.778;34.352;2022-10-16T02:21:42;1.08;;;0.95;;
75212;SDS011;63798;61.778;34.352;2022-10-16T02:24:11;2.20;;;1.17;;
75212;SDS011;63798;61.778;34.352;2022-10-16T02:26:41;1.48;;;0.93;;
75212;SDS011;63798;61.778;34.352;2022-10-16T02:29:13;1.52;;;0.85;;
75212;SDS011;63798;61.778;34.352;2022-10-16T02:31:43;1.10;;;1.00;;
75212;SDS011;63798;61.778;34.352;2022-10-16T02:34:13;1.83;;;1.10;;
75212;SDS011;63798;61.778;34.352;2022-10-16T02:36:41;1.17;;;1.08;;
75212;SDS011;63798;61.778;34.352;2022-10-16T02:39:08;1.35;;;1.20;;
75212;SDS011;63798;61.778;34.352;2022-10-16T02:44:02;1.42;;;1.08;;
75212;SDS011;63798;61.778;34.352;2022-10-16T02:46:29;1.10;;;0.73;;
75212;SDS011;63798;61.778;34.352;2022-10-16T02:48:55;1.88;;;1.13;;
75212;SDS011;63798;61.778;34.352;2022-10-16T02:51:24;1.30;;;1.00;;
75212;SDS011;63798;61.778;34.352;2022-10-16T02:53:50;1.40;;;1.05;;
75212;SDS011;63798;61.778;34.352;2022-10-16T02:56:17;1.63;;;1.10;;
75212;SDS011;63798;61.778;34.352;2022-10-16T02:58:44;2.05;;;0.90;;
75212;SDS011;63798;61.778;34.352;2022-10-16T03:01:11;1.02;;;0.93;;
75212;SDS011;63798;61.778;34.352;2022-10-16T03:03:39;1.20;;;1.08;;
75212;SDS011;63798;61.778;34.352;2022-10-16T03:06:06;1.98;;;1.20;;
75212;SDS011;63798;61.778;34.352;2022-10-16T03:08:34;2.08;;;1.27;;
75212;SDS011;63798;61.778;34.352;2022-10-16T03:11:01;3.55;;;1.17;;
75212;SDS011;63798;61.778;34.352;2022-10-16T03:13:27;1.20;;;1.02;;
75212;SDS011;63798;61.778;34.352;2022-10-16T03:15:54;1.17;;;0.90;;
75212;SDS011;63798;61.778;34.352;2022-10-16T03:18:21;1.35;;;1.10;;
75212;SDS011;63798;61.778;34.352;2022-10-16T03:20:47;1.70;;;1.20;;
75212;SDS011;63798;61.778;34.352;2022-10-16T03:23:14;1.95;;;1.33;;
75212;SDS011;63798;61.778;34.352;2022-10-16T03:25:42;1.70;;;1.30;;
75212;SDS011;63798;61.778;34.352;2022-10-16T03:28:09;1.60;;;1.23;;
75212;SDS011;63798;61.778;34.352;2022-10-16T03:30:36;1.70;;;1.30;;
75212;SDS011;63798;61.778;34.352;2022-10-16T03:33:04;2.05;;;1.20;;
75212;SDS011;63798;61.778;34.352;2022-10-16T03:35:31;2.65;;;1.33;;
75212;SDS011;63798;61.778;34.352;2022-10-16T03:37:58;1.88;;;1.20;;
75212;SDS011;63798;61.778;34.352;2022-10-16T03:40:25;1.27;;;1.13;;
75212;SDS011;63798;61.778;34.352;2022-10-16T03:42:53;1.35;;;1.13;;
75212;SDS011;63798;61.778;34.352;2022-10-16T03:45:22;1.58;;;1.20;;
75212;SDS011;63798;61.778;34.352;2022-10-16T03:47:49;1.17;;;1.00;;
75212;SDS011;63798;61.778;34.352;2022-10-16T03:50:15;2.22;;;1.20;;
75212;SDS011;63798;61.778;34.352;2022-10-16T03:52:42;1.35;;;1.10;;
75212;SDS011;63798;61.778;34.352;2022-10-16T03:55:09;1.55;;;1.17;;
75212;SDS011;63798;61.778;34.352;2022-10-16T03:57:35;1.95;;;1.40;;
75212;SDS011;63798;61.778;34.352;2022-10-16T04:00:04;1.27;;;1.17;;
75212;SDS011;63798;61.778;34.352;2022-10-16T04:02:31;1.80;;;1.15;;
75212;SDS011;63798;61.778;34.352;2022-10-16T04:04:58;1.52;;;1.33;;
75212;SDS011;63798;61.778;34.352;2022-10-16T04:07:24;1.55;;;1.33;;
75212;SDS011;63798;61.778;34.352;2022-10-16T04:09:51;2.40;;;1.55;;
75212;SDS011;63798;61.778;34.352;2022-10-16T04:12:18;1.70;;;1.50;;
75212;SDS011;63798;61.778;34.352;2022-10-16T04:14:45;1.80;;;1.40;;
75212;SDS011;63798;61.778;34.352;2022-10-16T04:17:13;1.67;;;1.40;;
75212;SDS011;63798;61.778;34.352;2022-10-16T04:19:40;2.13;;;1.55;;
75212;SDS011;63798;61.778;34.352;2022-10-16T04:22:07;2.65;;;1.60;;
75212;SDS011;63798;61.778;34.352;2022-10-16T04:24:33;1.77;;;1.33;;
75212;SDS011;63798;61.778;34.352;2022-10-16T04:27:00;2.65;;;1.50;;
75212;SDS011;63798;61.778;34.352;2022-10-16T04:29:27;2.45;;;1.48;;
75212;SDS011;63798;61.778;34.352;2022-10-16T04:31:53;1.52;;;1.33;;
75212;SDS011;63798;61.778;34.352;2022-10-16T04:34:22;3.25;;;1.77;;
75212;SDS011;63798;61.778;34.352;2022-10-16T04:36:49;2.22;;;1.67;;
75212;SDS011;63798;61.778;34.352;2022-10-16T04:39:15;2.22;;;1.60;;
75212;SDS011;63798;61.778;34.352;2022-10-16T04:41:42;2.67;;;1.67;;
75212;SDS011;63798;61.778;34.352;2022-10-16T04:44:09;3.25;;;1.60;;
75212;SDS011;63798;61.778;34.352;2022-10-16T04:46:36;2.38;;;1.75;;
75212;SDS011;63798;61.778;34.352;2022-10-16T04:49:02;2.53;;;1.50;;
75212;SDS011;63798;61.778;34.352;2022-10-16T04:51:31;1.73;;;1.35;;
75212;SDS011;63798;61.778;34.352;2022-10-16T04:53:58;2.50;;;1.80;;
75212;SDS011;63798;61.778;34.352;2022-10-16T04:56:24;1.95;;;1.40;;
75212;SDS011;63798;61.778;34.352;2022-10-16T04:58:51;2.03;;;1.48;;
75212;SDS011;63798;61.778;34.352;2022-10-16T05:01:18;1.88;;;1.70;;
75212;SDS011;63798;61.778;34.352;2022-10-16T05:03:44;1.52;;;1.40;;
75212;SDS011;63798;61.778;34.352;2022-10-16T05:06:11;3.42;;;2.00;;
75212;SDS011;63798;61.778;34.352;2022-10-16T05:08:39;1.85;;;1.65;;
75212;SDS011;63798;61.778;34.352;2022-10-16T05:11:06;2.78;;;2.20;;
75212;SDS011;63798;61.778;34.352;2022-10-16T05:13:33;2.78;;;1.80;;
75212;SDS011;63798;61.778;34.352;2022-10-16T05:16:00;2.28;;;1.75;;
75212;SDS011;63798;61.778;34.352;2022-10-16T05:18:27;2.10;;;1.75;;
75212;SDS011;63798;61.778;34.352;2022-10-16T05:20:54;2.63;;;1.85;;
75212;SDS011;63798;61.778;34.352;2022-10-16T05:23:20;2.53;;;1.88;;
75212;SDS011;63798;61.778;34.352;2022-10-16T05:25:53;2.08;;;1.50;;
75212;SDS011;63798;61.778;34.352;2022-10-16T05:28:20;1.73;;;1.60;;
75212;SDS011;63798;61.778;34.352;2022-10-16T05:30:47;2.03;;;1.80;;
75212;SDS011;63798;61.778;34.352;2022-10-16T05:33:14;2.83;;;1.70;;
75212;SDS011;63798;61.778;34.352;2022-10-16T05:35:41;2.00;;;1.70;;
75212;SDS011;63798;61.778;34.352;2022-10-16T05:38:07;2.30;;;2.03;;
75212;SDS011;63798;61.778;34.352;2022-10-16T05:40:34;2.30;;;1.70;;
75212;SDS011;63798;61.778;34.352;2022-10-16T05:43:02;2.60;;;1.90;;
75212;SDS011;63798;61.778;34.352;2022-10-16T05:45:29;2.28;;;1.70;;
75212;SDS011;63798;61.778;34.352;2022-10-16T05:47:56;2.13;;;1.50;;
75212;SDS011;63798;61.778;34.352;2022-10-16T05:50:23;3.05;;;1.85;;
75212;SDS011;63798;61.778;34.352;2022-10-16T05:52:49;2.45;;;1.75;;
75212;SDS011;63798;61.778;34.352;2022-10-16T05:55:16;1.73;;;1.50;;
75212;SDS011;63798;61.778;34.352;2022-10-16T05:57:43;2.22;;;1.70;;
75212;SDS011;63798;61.778;34.352;2022-10-16T06:00:11;1.60;;;1.40;;
75212;SDS011;63798;61.778;34.352;2022-10-16T06:02:38;1.90;;;1.50;;
75212;SDS011;63798;61.778;34.352;2022-10-16T06:05:05;2.42;;;1.60;;
75212;SDS011;63798;61.778;34.352;2022-10-16T06:07:33;2.10;;;1.45;;
75212;SDS011;63798;61.778;34.352;2022-10-16T06:10:00;2.50;;;1.60;;
75212;SDS011;63798;61.778;34.352;2022-10-16T06:12:27;1.80;;;1.40;;
75212;SDS011;63798;61.778;34.352;2022-10-16T06:14:54;1.95;;;1.20;;
75212;SDS011;63798;61.778;34.352;2022-10-16T06:17:22;2.03;;;1.65;;
75212;SDS011;63798;61.778;34.352;2022-10-16T06:19:49;2.17;;;1.42;;
75212;SDS011;63798;61.778;34.352;2022-10-16T06:22:16;1.90;;;1.77;;
75212;SDS011;63798;61.778;34.352;2022-10-16T06:24:42;2.33;;;1.70;;
75212;SDS011;63798;61.778;34.352;2022-10-16T06:27:09;1.45;;;1.35;;
75212;SDS011;63798;61.778;34.352;2022-10-16T06:29:36;1.52;;;1.40;;
75212;SDS011;63798;61.778;34.352;2022-10-16T06:32:02;1.77;;;1.50;;
75212;SDS011;63798;61.778;34.352;2022-10-16T06:34:31;2.03;;;1.48;;
75212;SDS011;63798;61.778;34.352;2022-10-16T06:36:57;2.00;;;1.58;;
75212;SDS011;63798;61.778;34.352;2022-10-16T06:39:24;2.28;;;1.70;;
75212;SDS011;63798;61.778;34.352;2022-10-16T06:41:51;2.40;;;1.40;;
75212;SDS011;63798;61.778;34.352;2022-10-16T06:44:17;1.98;;;1.60;;
75212;SDS011;63798;61.778;34.352;2022-10-16T06:46:44;2.00;;;1.33;;
75212;SDS011;63798;61.778;34.352;2022-10-16T06:49:11;2.00;;;1.58;;
75212;SDS011;63798;61.778;34.352;2022-10-16T06:51:39;2.15;;;1.63;;
75212;SDS011;63798;61.778;34.352;2022-10-16T06:54:07;1.83;;;1.60;;
75212;SDS011;63798;61.778;34.352;2022-10-16T06:56:34;1.80;;;1.50;;
75212;SDS011;63798;61.778;34.352;2022-10-16T06:59:00;3.70;;;1.50;;
75212;SDS011;63798;61.778;34.352;2022-10-16T07:01:28;1.63;;;1.30;;
75212;SDS011;63798;61.778;34.352;2022-10-16T07:03:55;1.50;;;1.40;;
75212;SDS011;63798;61.778;34.352;2022-10-16T07:06:22;3.75;;;1.42;;
75212;SDS011;63798;61.778;34.352;2022-10-16T07:11:17;2.08;;;1.42;;
75212;SDS011;63798;61.778;34.352;2022-10-16T07:13:44;1.65;;;1.48;;
75212;SDS011;63798;61.778;34.352;2022-10-16T07:16:12;2.05;;;1.70;;
75212;SDS011;63798;61.778;34.352;2022-10-16T07:18:39;2.58;;;1.50;;
75212;SDS011;63798;61.778;34.352;2022-10-16T07:21:08;3.58;;;1.80;;
75212;SDS011;63798;61.778;34.352;2022-10-16T07:23:35;2.90;;;1.80;;
75212;SDS011;63798;61.778;34.352;2022-10-16T07:26:02;2.58;;;1.67;;
75212;SDS011;63798;61.778;34.352;2022-10-16T07:28:30;2.22;;;1.98;;
75212;SDS011;63798;61.778;34.352;2022-10-16T07:31:00;2.85;;;2.00;;
75212;SDS011;63798;61.778;34.352;2022-10-16T07:33:26;2.08;;;1.58;;
75212;SDS011;63798;61.778;34.352;2022-10-16T07:35:53;3.20;;;1.88;;
75212;SDS011;63798;61.778;34.352;2022-10-16T07:38:21;2.40;;;1.75;;
75212;SDS011;63798;61.778;34.352;2022-10-16T07:40:48;2.15;;;1.58;;
75212;SDS011;63798;61.778;34.352;2022-10-16T07:43:15;3.08;;;1.77;;
75212;SDS011;63798;61.778;34.352;2022-10-16T07:45:49;1.98;;;1.77;;
75212;SDS011;63798;61.778;34.352;2022-10-16T07:48:16;3.85;;;1.67;;
75212;SDS011;63798;61.778;34.352;2022-10-16T07:50:43;3.53;;;2.13;;
75212;SDS011;63798;61.778;34.352;2022-10-16T07:53:10;2.78;;;1.92;;
75212;SDS011;63798;61.778;34.352;2022-10-16T07:55:37;2.85;;;2.00;;
75212;SDS011;63798;61.778;34.352;2022-10-16T07:58:04;2.15;;;1.70;;
75212;SDS011;63798;61.778;34.352;2022-10-16T08:00:31;2.17;;;1.55;;
75212;SDS011;63798;61.778;34.352;2022-10-16T08:02:59;2.00;;;1.70;;
75212;SDS011;63798;61.778;34.352;2022-10-16T08:05:26;3.08;;;2.03;;
75212;SDS011;63798;61.778;34.352;2022-10-16T08:07:53;2.72;;;1.90;;
75212;SDS011;63798;61.778;34.352;2022-10-16T08:10:20;2.65;;;1.70;;
75212;SDS011;63798;61.778;34.352;2022-10-16T08:12:47;2.67;;;2.00;;
75212;SDS011;63798;61.778;34.352;2022-10-16T08:15:14;2.42;;;1.85;;
75212;SDS011;63798;61.778;34.352;2022-10-16T08:17:41;1.95;;;1.70;;
75212;SDS011;63798;61.778;34.352;2022-10-16T08:20:10;2.08;;;1.67;;
75212;SDS011;63798;61.778;34.352;2022-10-16T08:22:37;2.70;;;1.83;;
75212;SDS011;63798;61.778;34.352;2022-10-16T08:25:04;2.63;;;1.65;;
75212;SDS011;63798;61.778;34.352;2022-10-16T08:27:33;3.15;;;1.83;;
75212;SDS011;63798;61.778;34.352;2022-10-16T08:30:00;3.05;;;2.03;;
75212;SDS011;63798;61.778;34.352;2022-10-16T08:32:27;3.28;;;1.90;;
75212;SDS011;63798;61.778;34.352;2022-10-16T08:34:54;2.55;;;1.83;;
75212;SDS011;63798;61.778;34.352;2022-10-16T08:37:22;2.97;;;1.75;;
75212;SDS011;63798;61.778;34.352;2022-10-16T08:39:48;2.25;;;1.70;;
75212;SDS011;63798;61.778;34.352;2022-10-16T08:42:18;2.35;;;1.80;;
75212;SDS011;63798;61.778;34.352;2022-10-16T08:47:39;2.08;;;1.90;;
75212;SDS011;63798;61.778;34.352;2022-10-16T08:50:10;3.92;;;2.13;;
75212;SDS011;63798;61.778;34.352;2022-10-16T08:52:40;5.63;;;2.63;;
75212;SDS011;63798;61.778;34.352;2022-10-16T08:55:08;2.60;;;2.05;;
75212;SDS011;63798;61.778;34.352;2022-10-16T08:57:49;4.13;;;2.30;;
75212;SDS011;63798;61.778;34.352;2022-10-16T09:00:19;5.38;;;2.38;;
75212;SDS011;63798;61.778;34.352;2022-10-16T09:02:49;2.97;;;2.50;;
75212;SDS011;63798;61.778;34.352;2022-10-16T09:05:21;3.05;;;2.15;;
75212;SDS011;63798;61.778;34.352;2022-10-16T09:07:55;5.65;;;2.35;;
75212;SDS011;63798;61.778;34.352;2022-10-16T09:10:30;3.13;;;2.50;;
75212;SDS011;63798;61.778;34.352;2022-10-16T09:13:02;2.83;;;2.10;;
75212;SDS011;63798;61.778;34.352;2022-10-16T09:15:34;2.75;;;2.13;;
75212;SDS011;63798;61.778;34.352;2022-10-16T09:18:03;4.18;;;2.40;;
75212;SDS011;63798;61.778;34.352;2022-10-16T09:20:36;2.90;;;2.05;;
75212;SDS011;63798;61.778;34.352;2022-10-16T09:23:17;4.57;;;2.17;;
75212;SDS011;63798;61.778;34.352;2022-10-16T09:25:44;3.05;;;2.17;;
75212;SDS011;63798;61.778;34.352;2022-10-16T09:28:12;2.65;;;2.13;;
75212;SDS011;63798;61.778;34.352;2022-10-16T09:30:39;2.65;;;2.10;;
75212;SDS011;63798;61.778;34.352;2022-10-16T09:33:06;2.72;;;2.03;;
75212;SDS011;63798;61.778;34.352;2022-10-16T09:35:35;2.83;;;2.15;;
75212;SDS011;63798;61.778;34.352;2022-10-16T09:38:03;3.45;;;2.25;;
75212;SDS011;63798;61.778;34.352;2022-10-16T09:40:32;2.67;;;2.33;;
75212;SDS011;63798;61.778;34.352;2022-10-16T09:43:01;3.00;;;2.50;;
75212;SDS011;63798;61.778;34.352;2022-10-16T09:45:29;2.50;;;2.17;;
75212;SDS011;63798;61.778;34.352;2022-10-16T09:47:56;2.30;;;1.95;;
75212;SDS011;63798;61.778;34.352;2022-10-16T09:50:23;3.20;;;2.60;;
75212;SDS011;63798;61.778;34.352;2022-10-16T09:53:02;2.95;;;2.20;;
75212;SDS011;63798;61.778;34.352;2022-10-16T09:55:28;2.95;;;2.25;;
75212;SDS011;63798;61.778;34.352;2022-10-16T09:57:57;2.67;;;2.15;;
75212;SDS011;63798;61.778;34.352;2022-10-16T10:00:24;2.75;;;1.70;;
75212;SDS011;63798;61.778;34.352;2022-10-16T10:02:50;4.95;;;2.55;;
75212;SDS011;63798;61.778;34.352;2022-10-16T10:05:18;3.70;;;2.03;;
75212;SDS011;63798;61.778;34.352;2022-10-16T10:07:46;3.28;;;2.22;;
75212;SDS011;63798;61.778;34.352;2022-10-16T10:10:18;2.60;;;2.20;;
75212;SDS011;63798;61.778;34.352;2022-10-16T10:12:46;2.65;;;1.98;;
75212;SDS011;63798;61.778;34.352;2022-10-16T10:15:14;2.53;;;2.08;;
75212;SDS011;63798;61.778;34.352;2022-10-16T10:17:46;2.72;;;2.22;;
75212;SDS011;63798;61.778;34.352;2022-10-16T10:20:18;2.03;;;1.83;;
75212;SDS011;63798;61.778;34.352;2022-10-16T10:22:47;2.28;;;2.03;;
75212;SDS011;63798;61.778;34.352;2022-10-16T10:25:26;2.35;;;1.95;;
75212;SDS011;63798;61.778;34.352;2022-10-16T10:28:05;2.92;;;2.05;;
75212;SDS011;63798;61.778;34.352;2022-10-16T10:30:37;3.42;;;2.10;;
75212;SDS011;63798;61.778;34.352;2022-10-16T10:33:10;2.65;;;1.90;;
75212;SDS011;63798;61.778;34.352;2022-10-16T10:35:40;2.08;;;1.80;;
75212;SDS011;63798;61.778;34.352;2022-10-16T10:38:12;2.33;;;1.83;;
75212;SDS011;63798;61.778;34.352;2022-10-16T10:40:45;2.03;;;1.75;;
75212;SDS011;63798;61.778;34.352;2022-10-16T10:43:20;2.78;;;2.05;;
75212;SDS011;63798;61.778;34.352;2022-10-16T10:48:24;2.33;;;1.80;;
75212;SDS011;63798;61.778;34.352;2022-10-16T10:50:52;2.25;;;2.05;;
75212;SDS011;63798;61.778;34.352;2022-10-16T10:53:24;2.17;;;1.95;;
75212;SDS011;63798;61.778;34.352;2022-10-16T10:55:59;2.58;;;2.17;;
75212;SDS011;63798;61.778;34.352;2022-10-16T10:58:34;2.40;;;1.95;;
75212;SDS011;63798;61.778;34.352;2022-10-16T11:01:04;2.58;;;1.90;;
75212;SDS011;63798;61.778;34.352;2022-10-16T11:03:42;2.08;;;1.88;;
75212;SDS011;63798;61.778;34.352;2022-10-16T11:06:14;1.90;;;1.52;;
75212;SDS011;63798;61.778;34.352;2022-10-16T11:08:43;2.35;;;2.10;;
75212;SDS011;63798;61.778;34.352;2022-10-16T11:11:14;2.20;;;1.92;;
75212;SDS011;63798;61.778;34.352;2022-10-16T11:13:44;2.25;;;1.90;;
75212;SDS011;63798;61.778;34.352;2022-10-16T11:16:15;2.72;;;1.83;;
75212;SDS011;63798;61.778;34.352;2022-10-16T11:18:48;3.00;;;2.03;;
75212;SDS011;63798;61.778;34.352;2022-10-16T11:21:16;2.38;;;1.85;;
75212;SDS011;63798;61.778;34.352;2022-10-16T11:23:45;2.55;;;2.03;;
75212;SDS011;63798;61.778;34.352;2022-10-16T11:26:14;2.08;;;1.70;;
75212;SDS011;63798;61.778;34.352;2022-10-16T11:28:43;3.53;;;2.10;;
75212;SDS011;63798;61.778;34.352;2022-10-16T11:31:13;2.83;;;2.03;;
75212;SDS011;63798;61.778;34.352;2022-10-16T11:33:43;1.95;;;1.75;;
75212;SDS011;63798;61.778;34.352;2022-10-16T11:36:14;2.38;;;1.80;;
75212;SDS011;63798;61.778;34.352;2022-10-16T11:38:46;3.25;;;1.73;;
75212;SDS011;63798;61.778;34.352;2022-10-16T11:41:16;2.72;;;1.95;;
75212;SDS011;63798;61.778;34.352;2022-10-16T11:43:46;2.33;;;1.80;;
75212;SDS011;63798;61.778;34.352;2022-10-16T11:46:16;1.67;;;1.58;;
75212;SDS011;63798;61.778;34.352;2022-10-16T11:48:45;2.30;;;2.08;;
75212;SDS011;63798;61.778;34.352;2022-10-16T11:51:18;1.92;;;1.75;;
75212;SDS011;63798;61.778;34.352;2022-10-16T11:53:49;2.75;;;1.90;;
75212;SDS011;63798;61.778;34.352;2022-10-16T11:56:18;2.38;;;1.77;;
75212;SDS011;63798;61.778;34.352;2022-10-16T11:58:48;2.22;;;1.83;;
75212;SDS011;63798;61.778;34.352;2022-10-16T12:01:18;1.75;;;1.52;;
75212;SDS011;63798;61.778;34.352;2022-10-16T12:03:47;2.55;;;1.77;;
75212;SDS011;63798;61.778;34.352;2022-10-16T12:06:25;2.15;;;1.65;;
75212;SDS011;63798;61.778;34.352;2022-10-16T12:08:55;3.10;;;2.15;;
75212;SDS011;63798;61.778;34.352;2022-10-16T12:11:30;1.83;;;1.70;;
75212;SDS011;63798;61.778;34.352;2022-10-16T12:14:06;1.85;;;1.42;;
75212;SDS011;63798;61.778;34.352;2022-10-16T12:16:33;2.05;;;1.80;;
75212;SDS011;63798;61.778;34.352;2022-10-16T12:19:10;1.70;;;1.33;;
75212;SDS011;63798;61.778;34.352;2022-10-16T12:21:38;2.28;;;1.60;;
75212;SDS011;63798;61.778;34.352;2022-10-16T12:24:20;1.70;;;1.60;;
75212;SDS011;63798;61.778;34.352;2022-10-16T12:26:47;3.55;;;1.98;;
75212;SDS011;63798;61.778;34.352;2022-10-16T12:29:20;1.75;;;1.60;;
75212;SDS011;63798;61.778;34.352;2022-10-16T12:31:51;2.00;;;1.80;;
75212;SDS011;63798;61.778;34.352;2022-10-16T12:34:20;1.85;;;1.65;;
75212;SDS011;63798;61.778;34.352;2022-10-16T12:36:52;2.25;;;1.63;;
75212;SDS011;63798;61.778;34.352;2022-10-16T12:39:20;1.85;;;1.75;;
75212;SDS011;63798;61.778;34.352;2022-10-16T12:41:47;2.38;;;1.67;;
75212;SDS011;63798;61.778;34.352;2022-10-16T12:44:21;4.07;;;1.80;;
75212;SDS011;63798;61.778;34.352;2022-10-16T12:46:48;2.08;;;1.88;;
75212;SDS011;63798;61.778;34.352;2022-10-16T12:49:21;1.77;;;1.38;;
75212;SDS011;63798;61.778;34.352;2022-10-16T12:51:49;1.70;;;1.50;;
75212;SDS011;63798;61.778;34.352;2022-10-16T12:54:18;1.77;;;1.60;;
75212;SDS011;63798;61.778;34.352;2022-10-16T12:56:51;2.17;;;1.55;;
75212;SDS011;63798;61.778;34.352;2022-10-16T12:59:22;2.63;;;1.65;;
75212;SDS011;63798;61.778;34.352;2022-10-16T13:01:56;3.08;;;1.92;;
75212;SDS011;63798;61.778;34.352;2022-10-16T13:04:34;3.92;;;2.40;;
75212;SDS011;63798;61.778;34.352;2022-10-16T13:07:13;2.75;;;1.85;;
75212;SDS011;63798;61.778;34.352;2022-10-16T13:09:48;1.85;;;1.65;;
75212;SDS011;63798;61.778;34.352;2022-10-16T13:12:23;2.22;;;1.98;;
75212;SDS011;63798;61.778;34.352;2022-10-16T13:17:50;1.75;;;1.65;;
75212;SDS011;63798;61.778;34.352;2022-10-16T13:20:20;2.22;;;1.67;;
75212;SDS011;63798;61.778;34.352;2022-10-16T13:22:50;2.15;;;1.65;;
75212;SDS011;63798;61.778;34.352;2022-10-16T13:25:22;1.92;;;1.70;;
75212;SDS011;63798;61.778;34.352;2022-10-16T13:27:52;2.35;;;1.90;;
75212;SDS011;63798;61.778;34.352;2022-10-16T13:30:21;2.38;;;1.80;;
75212;SDS011;63798;61.778;34.352;2022-10-16T13:32:49;1.98;;;1.70;;
75212;SDS011;63798;61.778;34.352;2022-10-16T13:35:20;2.13;;;1.75;;
75212;SDS011;63798;61.778;34.352;2022-10-16T13:37:47;2.13;;;1.63;;
75212;SDS011;63798;61.778;34.352;2022-10-16T13:40:18;1.52;;;1.42;;
75212;SDS011;63798;61.778;34.352;2022-10-16T13:42:46;2.10;;;1.80;;
75212;SDS011;63798;61.778;34.352;2022-10-16T13:45:19;2.20;;;1.70;;
75212;SDS011;63798;61.778;34.352;2022-10-16T13:50:13;2.00;;;1.52;;
75212;SDS011;63798;61.778;34.352;2022-10-16T13:52:40;1.95;;;1.48;;
75212;SDS011;63798;61.778;34.352;2022-10-16T13:55:10;2.33;;;1.67;;
75212;SDS011;63798;61.778;34.352;2022-10-16T13:57:37;1.60;;;1.48;;
75212;SDS011;63798;61.778;34.352;2022-10-16T14:00:16;2.55;;;1.83;;
75212;SDS011;63798;61.778;34.352;2022-10-16T14:02:43;2.63;;;1.65;;
75212;SDS011;63798;61.778;34.352;2022-10-16T14:05:10;1.77;;;1.55;;
75212;SDS011;63798;61.778;34.352;2022-10-16T14:07:38;2.47;;;1.90;;
75212;SDS011;63798;61.778;34.352;2022-10-16T14:10:06;1.85;;;1.52;;
75212;SDS011;63798;61.778;34.352;2022-10-16T14:12:33;2.40;;;1.70;;
75212;SDS011;63798;61.778;34.352;2022-10-16T14:15:00;1.42;;;1.33;;
75212;SDS011;63798;61.778;34.352;2022-10-16T14:17:29;2.92;;;1.90;;
75212;SDS011;63798;61.778;34.352;2022-10-16T14:19:57;1.95;;;1.63;;
75212;SDS011;63798;61.778;34.352;2022-10-16T14:22:27;2.80;;;1.60;;
75212;SDS011;63798;61.778;34.352;2022-10-16T14:24:54;2.50;;;1.52;;
75212;SDS011;63798;61.778;34.352;2022-10-16T14:27:23;2.28;;;1.55;;
75212;SDS011;63798;61.778;34.352;2022-10-16T14:30:01;1.55;;;1.45;;
75212;SDS011;63798;61.778;34.352;2022-10-16T14:32:32;2.70;;;1.85;;
75212;SDS011;63798;61.778;34.352;2022-10-16T14:34:59;2.08;;;1.63;;
75212;SDS011;63798;61.778;34.352;2022-10-16T14:37:26;2.08;;;1.77;;
75212;SDS011;63798;61.778;34.352;2022-10-16T14:39:54;1.75;;;1.55;;
75212;SDS011;63798;61.778;34.352;2022-10-16T14:44:49;2.33;;;1.42;;
75212;SDS011;63798;61.778;34.352;2022-10-16T14:47:18;2.47;;;1.60;;
75212;SDS011;63798;61.778;34.352;2022-10-16T14:49:48;1.88;;;1.67;;
75212;SDS011;63798;61.778;34.352;2022-10-16T14:52:15;2.38;;;1.80;;
75212;SDS011;63798;61.778;34.352;2022-10-16T14:54:42;2.95;;;1.88;;
75212;SDS011;63798;61.778;34.352;2022-10-16T14:57:15;2.40;;;2.00;;
75212;SDS011;63798;61.778;34.352;2022-10-16T14:59:43;2.40;;;1.75;;
75212;SDS011;63798;61.778;34.352;2022-10-16T15:04:36;2.88;;;1.92;;